Time;durP1;ratioP1;P1;durP2;ratioP2;P2;SDS_P1;SDS_P2;PMS_P1;PMS_P2;Temp;Humidity;BMP_temperature;BMP_pressure;BME280_temperature;BME280_humidity;BME280_pressure;Samples;Min_cycle;Max_cycle;Signal;HPM_P1;HPM_P2
2021/01/09 00:00:12;;;;;;;4.57;2.50;;;1.40;99.90;;;0.98;100.00;102164.69;4973274;28;20043;-76
2021/01/09 00:02:42;;;;;;;2.95;2.15;;;1.30;99.90;;;0.99;100.00;102161.91;4981571;28;20098;-73
2021/01/09 00:05:10;;;;;;;4.95;2.70;;;1.40;99.90;;;0.94;100.00;102163.16;4969285;28;20579;-76
2021/01/09 00:07:36;;;;;;;4.68;2.38;;;1.40;99.90;;;0.92;100.00;102163.25;4995705;28;20045;-75
2021/01/09 00:10:09;;;;;;;4.93;2.70;;;1.40;99.90;;;0.86;100.00;102163.69;5003956;28;20436;-73
2021/01/09 00:12:36;;;;;;;3.03;2.05;;;1.40;99.90;;;0.84;100.00;102168.31;4991208;28;20074;-74
2021/01/09 00:15:05;;;;;;;5.78;2.40;;;1.40;99.90;;;0.72;100.00;102161.09;5009533;28;20045;-72
2021/01/09 00:17:31;;;;;;;3.50;2.28;;;1.30;99.90;;;0.71;100.00;102170.09;5003035;28;20046;-71
2021/01/09 00:19:57;;;;;;;3.65;2.15;;;1.30;99.90;;;0.79;100.00;102164.25;4992554;28;20044;-75
2021/01/09 00:22:23;;;;;;;6.60;3.05;;;1.30;99.90;;;0.81;100.00;102171.19;4995976;28;20252;-80
2021/01/09 00:24:49;;;;;;;3.03;2.72;;;1.30;99.90;;;0.63;100.00;102178.66;5008210;28;20038;-80
2021/01/09 00:27:16;;;;;;;4.80;2.63;;;1.20;99.90;;;0.58;100.00;102179.91;4995793;28;20049;-80
2021/01/09 00:29:45;;;;;;;8.77;4.68;;;1.30;99.90;;;0.61;100.00;102177.91;5013460;28;20041;-80
2021/01/09 00:32:12;;;;;;;5.50;3.45;;;1.20;99.90;;;0.64;100.00;102185.75;5011827;28;20409;-79
2021/01/09 00:34:38;;;;;;;5.25;2.85;;;1.20;99.90;;;0.75;100.00;102182.34;5001762;28;20041;-78
2021/01/09 00:37:04;;;;;;;11.55;2.58;;;1.20;99.90;;;0.75;100.00;102192.19;5006695;28;20070;-78
2021/01/09 00:39:30;;;;;;;4.55;2.70;;;1.20;99.90;;;0.67;100.00;102184.69;4987943;28;20162;-76
2021/01/09 00:42:00;;;;;;;3.28;2.40;;;1.20;99.90;;;0.62;100.00;102186.81;4989116;28;20085;-80
2021/01/09 00:44:27;;;;;;;4.68;3.03;;;1.20;99.90;;;0.67;100.00;102187.38;4978430;28;20021;-73
2021/01/09 00:46:55;;;;;;;4.20;3.22;;;1.20;99.90;;;0.57;100.00;102186.22;4980295;28;20038;-75
2021/01/09 00:49:22;;;;;;;4.80;2.67;;;1.10;99.90;;;0.48;100.00;102187.72;4969776;28;20121;-77
2021/01/09 00:51:48;;;;;;;4.03;2.47;;;1.10;99.90;;;0.45;100.00;102192.44;4972469;28;20048;-79
2021/01/09 00:54:14;;;;;;;3.38;2.45;;;1.10;99.90;;;0.52;100.00;102196.41;4993025;28;20395;-75
2021/01/09 00:56:40;;;;;;;6.18;2.67;;;1.10;99.90;;;0.52;100.00;102196.41;5012387;28;20404;-72
2021/01/09 00:59:06;;;;;;;5.57;2.28;;;1.10;99.90;;;0.48;100.00;102192.22;4987189;28;20095;-77
2021/01/09 01:01:33;;;;;;;2.80;2.05;;;1.10;99.90;;;0.46;100.00;102197.66;4975259;28;20596;-79
2021/01/09 01:03:59;;;;;;;5.75;2.30;;;1.00;99.90;;;0.42;100.00;102195.31;4992513;28;20034;-70
2021/01/09 01:06:26;;;;;;;8.32;2.33;;;1.00;99.90;;;0.38;100.00;102199.16;4975546;28;20050;-71
2021/01/09 01:08:53;;;;;;;3.72;2.17;;;1.00;99.90;;;0.35;100.00;102201.06;5005724;28;20041;-75
2021/01/09 01:11:28;;;;;;;4.07;2.72;;;1.00;99.90;;;0.42;100.00;102206.03;4959958;28;20034;-75
2021/01/09 01:13:56;;;;;;;6.55;1.73;;;0.90;99.90;;;0.31;100.00;102215.63;5022728;28;20556;-73
2021/01/09 01:16:23;;;;;;;3.33;2.38;;;1.00;99.90;;;0.35;100.00;102214.44;5001960;28;20037;-81
2021/01/09 01:18:49;;;;;;;5.53;2.70;;;1.00;99.90;;;0.33;100.00;102213.72;4997435;28;20026;-76
2021/01/09 01:21:15;;;;;;;2.58;1.92;;;1.00;99.90;;;0.35;100.00;102222.47;5014401;28;20041;-79
2021/01/09 01:23:41;;;;;;;4.55;2.78;;;0.90;99.90;;;0.33;100.00;102215.53;4995747;28;20051;-80
2021/01/09 01:26:11;;;;;;;4.60;2.08;;;1.00;99.90;;;0.43;100.00;102223.81;4994903;28;20042;-75
2021/01/09 01:28:38;;;;;;;4.07;2.47;;;1.00;99.90;;;0.46;100.00;102221.78;4977074;28;20033;-69
2021/01/09 01:31:05;;;;;;;4.07;2.53;;;1.00;99.90;;;0.46;100.00;102216.41;4992350;28;20034;-74
2021/01/09 01:33:31;;;;;;;6.88;2.80;;;1.00;99.90;;;0.32;100.00;102228.06;5007252;28;20029;-69
2021/01/09 01:35:57;;;;;;;6.43;2.25;;;0.90;99.90;;;0.28;100.00;102237.25;4998154;28;20042;-71
2021/01/09 01:38:24;;;;;;;3.42;2.05;;;0.90;99.90;;;0.28;100.00;102231.03;4976004;28;20049;-76
2021/01/09 01:40:51;;;;;;;5.72;2.30;;;0.90;99.90;;;0.29;100.00;102238.97;4993717;28;20037;-72
2021/01/09 01:43:16;;;;;;;5.18;2.38;;;0.90;99.90;;;0.33;100.00;102242.31;4990849;28;20034;-77
2021/01/09 01:45:43;;;;;;;3.38;2.08;;;0.90;99.90;;;0.29;100.00;102243.47;5014209;28;20518;-80
2021/01/09 01:48:11;;;;;;;3.80;1.85;;;0.90;99.90;;;0.20;100.00;102244.91;5003497;28;20026;-79
2021/01/09 01:50:41;;;;;;;4.97;2.28;;;0.90;99.90;;;0.28;100.00;102247.09;5017130;28;20123;-79
2021/01/09 01:53:07;;;;;;;4.90;2.35;;;0.80;99.90;;;0.34;100.00;102246.69;5008881;28;20048;-80
2021/01/09 01:55:34;;;;;;;6.30;2.40;;;0.80;99.90;;;0.29;100.00;102249.69;4954191;28;20460;-80
2021/01/09 01:58:00;;;;;;;4.88;2.17;;;0.80;99.90;;;0.22;100.00;102252.84;4989999;28;20034;-80
2021/01/09 02:00:27;;;;;;;4.47;2.63;;;0.80;99.90;;;0.29;100.00;102247.00;4977448;28;20510;-70
2021/01/09 02:03:03;;;;;;;3.60;2.65;;;0.70;99.90;;;0.27;100.00;102251.59;4998290;28;20400;-79
2021/01/09 02:05:36;;;;;;;9.77;3.85;;;0.70;99.90;;;0.30;100.00;102251.41;5003991;28;20053;-71
2021/01/09 02:08:06;;;;;;;9.32;5.15;;;0.70;99.90;;;0.41;100.00;102247.16;4980898;28;20099;-71
2021/01/09 02:10:32;;;;;;;9.57;4.63;;;0.70;99.90;;;0.31;100.00;102250.44;4993159;28;20613;-70
2021/01/09 02:13:10;;;;;;;7.40;4.40;;;0.70;99.90;;;0.23;100.00;102244.69;5010146;28;20106;-76
2021/01/09 02:15:38;;;;;;;10.45;4.90;;;0.60;99.90;;;0.15;100.00;102249.69;4994786;28;20531;-69
2021/01/09 02:18:05;;;;;;;8.27;4.82;;;0.60;99.90;;;0.14;100.00;102249.78;4975520;28;20404;-72
2021/01/09 02:20:35;;;;;;;10.52;5.28;;;0.60;99.90;;;0.15;100.00;102255.06;5000209;28;20051;-70
2021/01/09 02:23:02;;;;;;;7.57;4.65;;;0.50;99.90;;;0.17;100.00;102255.81;4979238;28;20038;-70
2021/01/09 02:25:29;;;;;;;7.45;4.80;;;0.50;99.90;;;0.18;100.00;102245.97;4990549;28;20496;-70
2021/01/09 02:27:55;;;;;;;7.82;5.10;;;0.50;99.90;;;0.16;100.00;102256.78;4994068;28;20459;-78
2021/01/09 02:30:31;;;;;;;8.27;4.32;;;0.50;99.90;;;0.11;100.00;102258.91;4967885;28;20038;-70
2021/01/09 02:33:11;;;;;;;10.05;4.10;;;0.60;99.90;;;0.04;100.00;102254.88;4992279;28;20038;-74
2021/01/09 02:35:39;;;;;;;6.57;3.70;;;0.50;99.90;;;0.01;100.00;102265.78;4990982;28;20209;-74
2021/01/09 02:38:06;;;;;;;5.75;4.07;;;0.50;99.90;;;-0.04;100.00;102262.53;4991521;28;20049;-70
2021/01/09 02:40:39;;;;;;;7.18;3.97;;;0.40;99.90;;;-0.08;100.00;102266.34;4996679;28;20439;-79
2021/01/09 02:43:12;;;;;;;7.10;3.45;;;0.40;99.90;;;-0.14;100.00;102261.41;5007860;28;20030;-75
2021/01/09 02:45:38;;;;;;;6.25;4.05;;;0.40;99.90;;;-0.18;100.00;102265.22;4999550;28;20091;-79
2021/01/09 02:48:06;;;;;;;5.57;3.55;;;0.30;99.90;;;-0.18;100.00;102268.75;4988553;28;20048;-78
2021/01/09 02:50:32;;;;;;;6.40;3.75;;;0.30;99.90;;;-0.23;100.00;102272.69;4990796;28;20042;-77
2021/01/09 02:52:58;;;;;;;9.18;4.07;;;0.30;99.90;;;-0.22;100.00;102264.53;4999359;28;20123;-80
2021/01/09 02:55:24;;;;;;;7.35;4.15;;;0.30;99.90;;;-0.12;100.00;102271.06;4998772;28;20503;-78
2021/01/09 02:57:50;;;;;;;6.65;3.72;;;0.30;99.90;;;-0.22;100.00;102263.69;4999002;28;20103;-79
2021/01/09 03:00:18;;;;;;;6.47;4.03;;;0.30;99.90;;;-0.23;100.00;102268.22;4985514;28;20046;-76
2021/01/09 03:02:44;;;;;;;6.00;3.45;;;0.20;99.90;;;-0.25;100.00;102274.59;5014220;28;20037;-79
2021/01/09 03:05:10;;;;;;;8.23;4.78;;;0.20;99.90;;;-0.22;100.00;102274.38;4974774;28;20464;-76
2021/01/09 03:07:36;;;;;;;8.48;4.53;;;0.20;99.90;;;-0.16;100.00;102279.38;5005701;28;20056;-70
2021/01/09 03:10:02;;;;;;;9.13;3.55;;;0.30;99.90;;;-0.09;100.00;102272.66;4997307;28;20041;-70
2021/01/09 03:12:27;;;;;;;10.07;4.05;;;0.30;99.90;;;-0.06;100.00;102269.81;4994957;28;20072;-71
2021/01/09 03:14:53;;;;;;;6.82;3.90;;;0.30;99.90;;;-0.03;100.00;102267.81;4970916;28;20457;-74
2021/01/09 03:17:19;;;;;;;4.78;3.35;;;0.40;99.90;;;0.07;100.00;102265.41;4976134;28;20519;-76
2021/01/09 03:19:45;;;;;;;7.15;3.42;;;0.40;99.90;;;0.13;100.00;102270.34;4981796;28;20048;-79
2021/01/09 03:22:10;;;;;;;4.50;3.47;;;0.50;99.90;;;0.20;100.00;102271.69;4984504;28;20583;-79
2021/01/09 03:24:36;;;;;;;5.90;3.33;;;0.50;99.90;;;0.32;100.00;102275.41;4995546;28;20080;-79
2021/01/09 03:27:02;;;;;;;7.78;4.03;;;0.60;99.90;;;0.33;100.00;102272.63;4989494;28;20447;-79
2021/01/09 03:29:28;;;;;;;7.50;3.85;;;0.60;99.90;;;0.31;100.00;102274.53;4976157;28;20037;-79
2021/01/09 03:31:54;;;;;;;9.20;4.10;;;0.60;99.90;;;0.24;100.00;102267.84;5010430;28;20110;-77
2021/01/09 03:34:20;;;;;;;5.75;3.25;;;0.60;99.90;;;0.15;100.00;102265.75;4989269;28;20057;-77
2021/01/09 03:36:45;;;;;;;7.00;4.53;;;0.60;99.90;;;0.08;100.00;102269.81;4997109;28;20038;-77
2021/01/09 03:39:11;;;;;;;7.53;4.40;;;0.60;99.90;;;0.01;100.00;102265.78;4997014;28;20101;-77
2021/01/09 03:41:37;;;;;;;6.68;4.07;;;0.50;99.90;;;-0.05;100.00;102271.53;4996842;28;20058;-80
2021/01/09 03:44:03;;;;;;;6.55;3.72;;;0.50;99.90;;;-0.09;100.00;102270.00;4976760;28;20546;-79
2021/01/09 03:46:29;;;;;;;5.82;3.80;;;0.50;99.90;;;-0.11;100.00;102271.91;4978369;28;20053;-78
2021/01/09 03:48:54;;;;;;;9.00;2.92;;;0.40;99.90;;;-0.12;100.00;102280.91;5013500;28;20688;-79
2021/01/09 03:51:23;;;;;;;10.82;3.55;;;0.40;99.90;;;-0.18;100.00;102275.94;4960339;28;20126;-79
2021/01/09 03:53:49;;;;;;;4.95;2.88;;;0.40;99.90;;;-0.24;100.00;102276.31;4972947;28;21973;-74
2021/01/09 03:56:15;;;;;;;6.80;3.35;;;0.30;99.90;;;-0.26;100.00;102279.09;4960694;28;20108;-74
2021/01/09 03:58:42;;;;;;;6.15;3.40;;;0.30;99.90;;;-0.28;100.00;102274.78;5002386;28;20053;-72
2021/01/09 04:01:08;;;;;;;7.13;3.80;;;0.20;99.90;;;-0.29;100.00;102278.41;4975539;28;20045;-72
2021/01/09 04:03:34;;;;;;;6.68;3.00;;;0.20;99.90;;;-0.33;100.00;102276.88;4976622;28;20038;-72
2021/01/09 04:05:59;;;;;;;6.80;3.13;;;0.20;99.90;;;-0.35;100.00;102278.81;4976249;28;20053;-72
2021/01/09 04:08:25;;;;;;;5.40;2.65;;;0.10;99.90;;;-0.44;100.00;102274.84;5012126;28;20057;-75
2021/01/09 04:10:51;;;;;;;3.40;2.45;;;0.10;99.90;;;-0.46;100.00;102277.66;4970543;28;20703;-73
2021/01/09 04:13:17;;;;;;;5.47;2.53;;;0.10;99.90;;;-0.44;100.00;102281.06;4976568;28;20038;-71
2021/01/09 04:15:43;;;;;;;3.70;2.40;;;0.00;99.90;;;-0.45;100.00;102274.00;4981372;28;20563;-74
2021/01/09 04:18:09;;;;;;;6.75;2.80;;;0.00;99.90;;;-0.45;100.00;102276.66;4995535;28;20129;-72
2021/01/09 04:20:35;;;;;;;5.78;2.85;;;0.00;99.90;;;-0.49;100.00;102283.19;4998497;28;20045;-73
2021/01/09 04:23:00;;;;;;;6.25;2.78;;;0.00;99.90;;;-0.50;100.00;102284.13;5006114;28;20038;-73
2021/01/09 04:25:26;;;;;;;4.38;2.45;;;0.00;99.90;;;-0.47;100.00;102275.94;4959361;28;20732;-73
2021/01/09 04:27:52;;;;;;;6.15;2.88;;;0.00;99.90;;;-0.47;100.00;102281.28;5000351;28;20056;-73
2021/01/09 04:30:19;;;;;;;6.10;2.53;;;0.00;99.90;;;-0.42;100.00;102289.88;4972410;28;20142;-73
2021/01/09 04:32:44;;;;;;;8.38;2.40;;;0.00;99.90;;;-0.43;100.00;102288.13;4980129;28;20582;-74
2021/01/09 04:35:10;;;;;;;7.78;2.92;;;0.00;99.90;;;-0.45;100.00;102283.84;4979365;28;20030;-73
2021/01/09 04:37:38;;;;;;;4.10;2.53;;;0.00;99.90;;;-0.46;100.00;102282.16;4990466;28;20503;-73
2021/01/09 04:40:06;;;;;;;4.38;2.63;;;0.00;99.90;;;-0.37;100.00;102282.44;4969875;28;20034;-72
2021/01/09 04:42:33;;;;;;;7.68;2.45;;;0.00;99.90;;;-0.41;100.00;102283.56;4986387;28;20049;-73
2021/01/09 04:45:00;;;;;;;7.45;3.40;;;0.00;99.90;;;-0.45;100.00;102290.03;4968572;28;20029;-74
2021/01/09 04:47:29;;;;;;;4.63;2.47;;;0.00;99.90;;;-0.50;100.00;102292.16;4983895;28;20038;-73
2021/01/09 04:49:56;;;;;;;5.03;2.63;;;0.00;99.90;;;-0.54;100.00;102293.28;4989142;28;20042;-74
2021/01/09 04:52:22;;;;;;;5.50;2.67;;;0.00;99.90;;;-0.58;100.00;102294.44;5007134;28;20041;-73
2021/01/09 04:54:49;;;;;;;5.05;2.50;;;0.00;99.90;;;-0.61;100.00;102294.63;4996905;28;20791;-70
2021/01/09 04:57:15;;;;;;;6.50;2.17;;;-0.10;99.90;;;-0.62;100.00;102300.91;5010249;28;20053;-72
2021/01/09 04:59:42;;;;;;;4.13;2.15;;;-0.10;99.90;;;-0.58;100.00;102301.59;5010377;28;20067;-74
2021/01/09 05:02:11;;;;;;;3.10;1.85;;;-0.10;99.90;;;-0.53;100.00;102303.03;5003101;28;20475;-72
2021/01/09 05:04:45;;;;;;;3.00;2.38;;;-0.10;99.90;;;-0.53;100.00;102302.16;4991172;28;20073;-73
2021/01/09 05:07:12;;;;;;;5.07;1.80;;;-0.10;99.90;;;-0.55;100.00;102304.06;4978922;28;20053;-73
2021/01/09 05:09:37;;;;;;;2.65;1.95;;;-0.10;99.90;;;-0.53;100.00;102297.69;4980099;28;20042;-73
2021/01/09 05:12:04;;;;;;;7.82;2.58;;;-0.10;99.90;;;-0.49;100.00;102309.06;5001551;28;20573;-74
2021/01/09 05:14:30;;;;;;;4.75;1.80;;;-0.10;99.90;;;-0.50;100.00;102302.84;4972028;28;20045;-73
2021/01/09 05:17:00;;;;;;;6.55;2.33;;;-0.10;99.90;;;-0.47;100.00;102302.69;4966830;28;20403;-73
2021/01/09 05:19:30;;;;;;;5.65;3.03;;;0.00;99.90;;;-0.50;100.00;102308.19;4974453;28;20561;-73
2021/01/09 05:22:03;;;;;;;15.43;3.45;;;0.00;99.90;;;-0.51;100.00;102301.13;4980344;28;20049;-73
2021/01/09 05:24:33;;;;;;;4.35;2.22;;;0.00;99.90;;;-0.55;100.00;102309.41;4994987;28;20038;-75
2021/01/09 05:26:59;;;;;;;5.05;2.38;;;0.00;99.90;;;-0.63;100.00;102323.25;4993895;28;20038;-72
2021/01/09 05:29:27;;;;;;;4.43;1.90;;;-0.10;99.90;;;-0.66;100.00;102322.56;4981443;28;20086;-70
2021/01/09 05:31:54;;;;;;;3.50;2.03;;;-0.10;99.90;;;-0.62;100.00;102314.28;4999234;28;20436;-69
2021/01/09 05:34:20;;;;;;;5.28;2.67;;;-0.10;99.90;;;-0.58;100.00;102326.53;4982471;28;20046;-70
2021/01/09 05:36:46;;;;;;;6.35;2.40;;;0.00;99.90;;;-0.55;100.00;102326.31;4979094;28;20038;-70
2021/01/09 05:39:12;;;;;;;7.00;2.28;;;-0.10;99.90;;;-0.55;100.00;102323.66;4998502;28;20030;-70
2021/01/09 05:41:41;;;;;;;4.20;2.05;;;0.00;99.90;;;-0.51;100.00;102327.88;4973976;28;20902;-69
2021/01/09 05:44:11;;;;;;;6.90;2.58;;;-0.10;99.90;;;-0.50;100.00;102326.91;4993064;28;20044;-74
2021/01/09 05:46:41;;;;;;;4.45;2.15;;;-0.10;99.90;;;-0.52;100.00;102331.50;4977814;28;20033;-71
2021/01/09 05:49:09;;;;;;;5.47;2.53;;;0.00;99.90;;;-0.48;100.00;102333.03;4984914;28;20042;-72
2021/01/09 05:51:40;;;;;;;6.72;2.38;;;0.00;99.90;;;-0.48;100.00;102327.69;4996071;28;20045;-73
2021/01/09 05:54:07;;;;;;;8.15;2.63;;;0.00;99.90;;;-0.42;100.00;102331.78;4996447;28;20030;-73
2021/01/09 05:56:39;;;;;;;6.40;2.63;;;0.10;99.90;;;-0.33;100.00;102330.38;4977372;28;20034;-73
2021/01/09 05:59:05;;;;;;;7.43;2.40;;;0.10;99.90;;;-0.31;100.00;102333.81;4993337;28;20026;-73
2021/01/09 06:01:35;;;;;;;4.78;2.22;;;0.20;99.90;;;-0.25;100.00;102345.03;4992067;28;20202;-72
2021/01/09 06:04:05;;;;;;;5.55;2.33;;;0.20;99.90;;;-0.24;100.00;102336.03;4991657;28;20037;-72
2021/01/09 06:06:56;;;;;;;5.72;2.15;;;0.30;99.90;;;-0.19;100.00;102341.09;5001057;28;20049;-73
2021/01/09 06:09:27;;;;;;;3.90;2.20;;;0.30;99.90;;;-0.18;100.00;102345.50;5001785;28;20046;-72
2021/01/09 06:11:55;;;;;;;3.30;2.42;;;0.30;99.90;;;-0.18;100.00;102342.81;4991282;28;20034;-73
2021/01/09 06:14:26;;;;;;;4.93;2.13;;;0.30;99.90;;;-0.19;100.00;102349.97;4988590;28;20076;-70
2021/01/09 06:16:54;;;;;;;4.30;2.00;;;0.30;99.90;;;-0.22;100.00;102343.94;4971942;28;20038;-72
2021/01/09 06:19:23;;;;;;;5.28;2.13;;;0.30;99.90;;;-0.16;100.00;102347.13;4994738;28;20065;-73
2021/01/09 06:21:53;;;;;;;7.18;3.55;;;0.20;99.90;;;-0.18;100.00;102345.50;5010623;28;20493;-71
2021/01/09 06:24:21;;;;;;;5.07;2.80;;;0.20;99.90;;;-0.24;100.00;102356.59;4976210;28;20485;-74
2021/01/09 06:26:47;;;;;;;7.70;2.50;;;0.20;99.90;;;-0.16;100.00;102355.16;4995188;28;20049;-72
2021/01/09 06:29:22;;;;;;;6.57;2.38;;;0.20;99.90;;;-0.12;100.00;102351.34;4991326;28;20042;-71
2021/01/09 06:32:03;;;;;;;8.77;2.92;;;0.20;99.90;;;-0.04;100.00;102350.88;4998739;28;20054;-76
2021/01/09 06:34:31;;;;;;;6.00;2.63;;;0.30;99.90;;;0.01;100.00;102356.78;4999591;28;20060;-78
2021/01/09 06:37:03;;;;;;;9.57;2.38;;;0.30;99.90;;;0.06;100.00;102353.81;4979899;28;20037;-79
2021/01/09 06:39:38;;;;;;;6.15;3.30;;;0.30;99.90;;;0.05;100.00;102352.97;5001290;28;20038;-78
2021/01/09 06:42:08;;;;;;;8.43;3.15;;;0.40;99.90;;;0.09;100.00;102351.81;4997175;28;20388;-79
2021/01/09 06:44:34;;;;;;;5.00;2.88;;;0.40;99.90;;;0.10;100.00;102360.72;4993315;28;20460;-79
2021/01/09 06:47:00;;;;;;;4.07;2.75;;;0.50;99.90;;;0.10;100.00;102361.59;4983934;28;20053;-78
2021/01/09 06:49:27;;;;;;;9.80;2.78;;;0.40;99.90;;;0.03;100.00;102356.69;5012183;28;20400;-71
2021/01/09 06:52:01;;;;;;;7.53;3.72;;;0.40;99.90;;;0.00;100.00;102352.41;4997591;28;20069;-74
2021/01/09 06:54:47;;;;;;;6.57;3.33;;;0.40;99.90;;;-0.12;100.00;102356.69;4998075;28;20041;-80
2021/01/09 06:57:14;;;;;;;12.27;3.22;;;0.40;99.90;;;-0.15;100.00;102359.56;5016303;28;20046;-79
2021/01/09 06:59:50;;;;;;;8.90;3.97;;;0.40;99.90;;;-0.13;100.00;102354.13;5015671;28;20036;-80
2021/01/09 07:02:20;;;;;;;8.15;3.05;;;0.30;99.90;;;-0.17;100.00;102358.78;4998299;28;20085;-81
2021/01/09 07:05:08;;;;;;;13.02;3.80;;;0.30;99.90;;;-0.18;100.00;102367.75;4997531;28;20050;-81
2021/01/09 07:07:56;;;;;;;10.60;3.38;;;0.30;99.90;;;-0.15;100.00;102366.72;5011894;28;20514;-83
2021/01/09 07:10:28;;;;;;;7.60;2.67;;;0.20;99.90;;;-0.24;100.00;102369.97;4996419;28;20060;-80
2021/01/09 07:13:04;;;;;;;6.63;3.65;;;0.20;99.90;;;-0.29;100.00;102364.88;5015495;28;20462;-81
2021/01/09 07:15:34;;;;;;;6.47;2.63;;;0.10;99.90;;;-0.38;100.00;102374.31;4998105;28;20041;-80
2021/01/09 07:18:03;;;;;;;10.80;3.47;;;0.10;99.90;;;-0.42;100.00;102377.25;5020017;28;20038;-78
2021/01/09 07:20:43;;;;;;;5.78;2.22;;;0.10;99.90;;;-0.45;100.00;102377.44;5002163;28;20038;-78
2021/01/09 07:23:13;;;;;;;11.95;3.17;;;0.10;99.90;;;-0.44;100.00;102377.34;5002278;28;20565;-78
2021/01/09 07:25:46;;;;;;;8.73;2.83;;;0.00;99.90;;;-0.42;100.00;102379.94;4984803;28;20029;-78
2021/01/09 07:28:20;;;;;;;6.57;3.05;;;0.00;99.90;;;-0.37;100.00;102384.06;5007532;28;20034;-79
2021/01/09 07:30:46;;;;;;;;;;;0.00;99.90;;;-0.33;100.00;102383.88;4997188;28;20033;-80
2021/01/09 07:33:15;;;;;;;7.22;2.63;;;0.10;99.90;;;-0.24;100.00;102384.19;5013580;28;20044;-78
2021/01/09 07:35:44;;;;;;;7.97;3.92;;;0.10;99.90;;;-0.25;100.00;102395.00;5003007;28;20034;-79
2021/01/09 07:38:13;;;;;;;8.38;2.90;;;0.20;99.90;;;-0.17;100.00;102390.03;5002179;28;20476;-76
2021/01/09 07:40:45;;;;;;;5.75;3.28;;;0.20;99.90;;;-0.05;100.00;102398.19;5004530;28;20120;-78
2021/01/09 07:43:43;;;;;;;11.35;3.10;;;0.30;99.90;;;0.05;100.00;102395.78;5020669;28;20033;-80
2021/01/09 07:46:32;;;;;;;6.97;2.78;;;0.40;99.90;;;0.21;100.00;102395.72;4990619;28;20068;-77
2021/01/09 07:49:03;;;;;;;2.95;2.35;;;0.60;99.90;;;0.34;100.00;102397.50;4999244;28;20049;-72
2021/01/09 07:51:49;;;;;;;9.55;2.80;;;0.70;99.90;;;0.40;100.00;102395.41;4995155;28;20030;-71
2021/01/09 07:54:40;;;;;;;5.18;3.15;;;0.70;99.90;;;0.45;100.00;102404.91;5004703;28;20039;-72
2021/01/09 07:57:18;;;;;;;11.70;2.60;;;0.80;99.90;;;0.54;100.00;102404.31;5010198;28;20125;-72
2021/01/09 08:00:07;;;;;;;3.15;2.22;;;0.90;99.90;;;0.56;100.00;102407.75;5015182;28;20029;-73
2021/01/09 08:02:42;;;;;;;12.05;2.63;;;1.00;99.90;;;0.65;100.00;102401.81;4994865;28;20068;-74
2021/01/09 08:05:21;;;;;;;11.15;2.85;;;1.10;99.90;;;0.70;100.00;102409.53;4988513;28;20030;-75
2021/01/09 08:07:59;;;;;;;9.05;2.50;;;1.20;99.90;;;0.73;100.00;102412.03;4982614;28;20041;-77
2021/01/09 08:10:34;;;;;;;4.40;1.90;;;1.20;99.90;;;0.78;100.00;102417.97;5000218;28;20069;-76
2021/01/09 08:13:08;;;;;;;6.90;2.25;;;1.20;99.90;;;0.77;100.00;102416.25;5013453;28;20038;-70
2021/01/09 08:15:36;;;;;;;8.25;2.90;;;1.30;99.90;;;0.85;100.00;102418.41;5011523;28;20041;-73
2021/01/09 08:18:05;;;;;;;8.70;3.30;;;1.30;99.90;;;0.99;100.00;102421.06;5015975;28;20410;-75
2021/01/09 08:20:32;;;;;;;10.23;2.78;;;1.40;99.90;;;1.07;100.00;102424.97;4995703;28;20026;-70
2021/01/09 08:23:06;;;;;;;7.55;3.30;;;1.50;99.90;;;1.09;100.00;102428.41;4978776;28;20041;-74
2021/01/09 08:25:38;;;;;;;5.78;2.78;;;1.50;99.90;;;1.21;100.00;102425.88;4992028;28;20033;-79
2021/01/09 08:28:05;;;;;;;5.75;1.80;;;1.60;99.90;;;1.16;100.00;102426.19;5004526;28;20036;-77
2021/01/09 08:30:40;;;;;;;5.68;2.38;;;1.70;99.90;;;1.23;100.00;102432.03;4993172;28;20046;-79
2021/01/09 08:33:17;;;;;;;8.73;2.35;;;1.70;99.90;;;1.32;100.00;102428.72;5016882;28;20068;-83
2021/01/09 08:35:45;;;;;;;5.45;2.35;;;1.80;99.90;;;1.36;100.00;102435.59;4994397;28;20045;-75
2021/01/09 08:38:11;;;;;;;8.38;2.40;;;1.80;99.90;;;1.69;100.00;102433.31;5016553;28;20089;-81
2021/01/09 08:40:37;;;;;;;7.65;2.35;;;1.90;99.90;;;2.58;100.00;102437.91;4982753;28;20060;-82
2021/01/09 08:43:11;;;;;;;4.45;2.67;;;2.20;99.90;;;3.78;100.00;102432.50;5002210;28;20125;-71
2021/01/09 08:45:55;;;;;;;6.57;2.95;;;2.90;99.90;;;5.14;100.00;102433.31;5004124;28;20042;-69
2021/01/09 08:48:29;;;;;;;6.63;3.33;;;3.80;99.90;;;6.50;95.29;102431.56;5000352;28;20488;-70
2021/01/09 08:51:10;;;;;;;6.65;3.05;;;4.90;99.90;;;7.79;87.03;102439.72;4982209;28;20480;-71
2021/01/09 08:54:00;;;;;;;5.88;2.08;;;5.90;99.90;;;9.06;85.72;102432.78;5012077;28;20037;-69
2021/01/09 08:56:27;;;;;;;6.50;2.05;;;7.00;99.90;;;9.96;76.75;102436.44;5014127;28;20376;-70
2021/01/09 08:58:54;;;;;;;3.67;1.55;;;8.00;99.90;;;10.81;79.85;102441.13;4996536;28;20125;-71
2021/01/09 09:01:40;;;;;;;4.95;1.90;;;8.80;99.90;;;11.46;70.80;102449.53;4986651;28;20113;-71
2021/01/09 09:04:09;;;;;;;7.50;1.83;;;9.50;99.90;;;12.11;69.59;102455.09;5017078;28;20033;-74
2021/01/09 09:06:38;;;;;;;4.10;1.55;;;10.20;99.90;;;12.66;65.68;102457.91;4989873;28;20079;-78
2021/01/09 09:09:05;;;;;;;5.10;2.42;;;10.80;99.90;;;13.09;60.04;102451.13;5008205;28;20046;-77
2021/01/09 09:11:31;;;;;;;4.75;1.33;;;11.30;99.90;;;13.23;58.41;102457.75;4987646;28;20073;-76
2021/01/09 09:14:10;;;;;;;5.15;2.00;;;11.60;99.90;;;12.94;59.80;102458.38;5004059;28;20041;-75
2021/01/09 09:16:38;;;;;;;7.03;3.58;;;11.60;99.90;;;12.20;56.76;102459.50;5023958;28;20042;-78
2021/01/09 09:19:18;;;;;;;8.05;2.70;;;11.50;99.90;;;11.39;60.55;102465.72;5016924;28;20100;-75
2021/01/09 09:21:57;;;;;;;7.07;2.63;;;11.10;99.90;;;11.14;62.12;102472.09;5012240;28;20034;-78
2021/01/09 09:24:39;;;;;;;3.60;2.35;;;10.80;99.90;;;11.45;61.64;102465.03;5010573;28;20125;-81
2021/01/09 09:27:32;;;;;;;5.95;2.17;;;10.80;99.90;;;11.01;61.61;102471.69;5018886;28;20057;-79
2021/01/09 09:30:18;;;;;;;3.92;3.17;;;10.60;99.90;;;10.19;67.32;102470.31;5000142;28;20104;-80
2021/01/09 09:32:47;;;;;;;7.68;2.30;;;10.20;99.90;;;9.25;70.02;102475.31;4989556;28;20072;-80
2021/01/09 09:35:29;;;;;;;11.68;2.22;;;9.70;99.90;;;8.54;70.71;102466.03;5000969;28;20057;-81
2021/01/09 09:38:02;;;;;;;9.68;2.35;;;9.10;99.90;;;8.30;74.92;102467.34;5012398;28;20064;-79
2021/01/09 09:40:34;;;;;;;3.33;2.38;;;8.60;99.90;;;9.17;72.56;102477.06;5001312;28;20528;-78
2021/01/09 09:43:19;;;;;;;6.47;1.90;;;8.70;99.90;;;10.46;67.02;102466.63;4998425;28;20436;-79
2021/01/09 09:46:03;;;;;;;6.70;1.80;;;9.30;99.90;;;11.75;63.51;102469.03;4982365;28;20088;-80
2021/01/09 09:48:39;;;;;;;4.95;1.38;;;10.10;99.90;;;12.25;57.03;102468.06;5009336;28;20049;-79
2021/01/09 09:51:08;;;;;;;6.82;1.85;;;10.70;99.80;;;12.67;55.15;102479.59;5001860;28;20512;-81
2021/01/09 09:53:40;;;;;;;3.25;1.02;;;11.30;98.80;;;12.71;54.53;102486.44;5000033;28;20046;-80
2021/01/09 09:56:20;;;;;;;1.95;0.90;;;11.50;98.00;;;12.78;56.27;102480.25;4977386;28;20404;-75
2021/01/09 09:58:59;;;;;;;1.73;0.90;;;11.80;98.80;;;13.32;54.83;102479.41;5005081;28;20037;-78
2021/01/09 10:01:24;;;;;;;2.85;0.88;;;12.10;98.40;;;13.62;52.74;102480.47;5017560;28;20441;-77
2021/01/09 10:03:51;;;;;;;4.22;1.67;;;12.40;96.80;;;12.99;54.35;102472.34;5017221;28;20068;-83
2021/01/09 10:06:17;;;;;;;3.17;1.25;;;12.30;96.70;;;12.02;56.68;102477.97;4998489;28;20050;-81
2021/01/09 10:08:44;;;;;;;5.05;1.55;;;11.90;96.70;;;11.11;59.48;102472.41;4996405;28;20068;-70
2021/01/09 10:11:10;;;;;;;2.78;1.30;;;11.40;97.20;;;10.30;61.77;102478.22;4997975;28;20068;-75
2021/01/09 10:13:37;;;;;;;3.22;1.17;;;10.80;98.00;;;9.68;64.95;102477.31;5012075;28;20399;-70
2021/01/09 10:16:04;;;;;;;4.60;2.10;;;10.30;99.10;;;9.16;67.56;102470.78;4990146;28;20034;-72
2021/01/09 10:18:32;;;;;;;3.30;1.17;;;9.80;99.90;;;8.68;69.86;102465.56;4980569;28;20045;-71
2021/01/09 10:20:59;;;;;;;5.00;1.73;;;9.40;99.90;;;8.25;71.67;102458.78;5001897;28;20042;-74
2021/01/09 10:23:28;;;;;;;3.60;1.00;;;9.00;99.90;;;7.92;73.85;102467.38;4996064;28;20030;-80
2021/01/09 10:25:55;;;;;;;6.78;1.00;;;8.60;99.90;;;7.71;75.08;102463.94;5000472;28;20037;-70